Flight Track Log - Related Links

Times and Time Zones

All times are in EDT time to prevent confusion due to time zone crossing. See the SLI2344 flight status page for this flight to view local times or setup timezone preferences in your user account.

Time Position Orientation Groundspeed Altitude Reporting Facility
EDT Latitude Longitude Course Direction KTS MPH feet Rate Location/Type
08:25AM 20.8021 -103.3165 359° North  Level Estimated
08:26AM 20.8955 -103.3183 359° North  Level Estimated
08:27AM 20.9872 -103.3200 359° North  Level Estimated
08:28AM 21.0790 -103.3218 359° North  Level Estimated
08:29AM 21.1707 -103.3235 359° North  Level Estimated
08:30AM 21.2624 -103.3253 359° North  Level Estimated
08:31AM 21.3541 -103.3271 359° North  Level Estimated
08:32AM 21.4459 -103.3288 359° North  Level Estimated
08:33AM 21.5376 -103.3306 359° North  Level Estimated
08:34AM 21.6293 -103.3324 359° North  Level Estimated
08:35AM 21.7211 -103.3341 359° North  Level Estimated
08:36AM 21.8128 -103.3359 359° North  Level Estimated
08:37AM 21.9045 -103.3377 359° North  Level Estimated
08:38AM 21.9963 -103.3394 359° North  Level Estimated
08:39AM 22.0880 -103.3412 359° North  Level Estimated
08:40AM 22.1797 -103.3430 359° North  Level Estimated
08:41AM 22.2714 -103.3448 359° North  Level Estimated
08:42AM 22.3632 -103.3466 359° North  Level Estimated
08:43AM 22.4549 -103.3484 359° North  Level Estimated
08:44AM 22.5466 -103.3502 359° North  Level Estimated
08:45AM 22.6384 -103.3520 359° North  Level Estimated
08:46AM 22.7301 -103.3538 359° North  Level Estimated
08:47AM 22.8218 -103.3556 359° North  Level Estimated
08:48AM 22.9135 -103.3574 359° North  Level Estimated
08:49AM 23.0053 -103.3592 359° North  Level Estimated
08:50AM 23.0970 -103.3610 359° North  Level Estimated
08:51AM 23.1887 -103.3628 359° North  Level Estimated
08:52AM 23.2805 -103.3646 359° North  Level Estimated
08:53AM 23.3722 -103.3664 359° North  Level Estimated
08:54AM 23.4639 -103.3682 359° North  Level Estimated
08:55AM 23.5557 -103.3700 359° North  Level Estimated
08:56AM 23.6474 -103.3718 359° North  Level Estimated
08:57AM 23.7391 -103.3737 359° North  Level Estimated
08:58AM 23.8309 -103.3755 359° North  Level Estimated
08:59AM 23.9226 -103.3773 359° North  Level Estimated
09:00AM 24.0143 -103.3792 359° North  Level Estimated
09:01AM 24.1060 -103.3810 359° North  Level Estimated
09:02AM 24.1978 -103.3828 359° North  Level Estimated
09:03AM 24.2895 -103.3847 359° North  Level Estimated
09:04AM 24.3812 -103.3865 359° North  Level Estimated
09:05AM 24.4730 -103.3884 359° North  Level Estimated
09:06AM 24.5647 -103.3902 359° North  Level Estimated
09:07AM 24.6564 -103.3921 359° North  Level Estimated
09:08AM 24.7481 -103.3939 359° North  Level Estimated
09:09AM 24.8399 -103.3958 359° North  Level Estimated
09:10AM 24.9316 -103.3976 359° North  Level Estimated
09:11AM 25.0233 -103.3995 359° North  Level Estimated
09:12AM 25.1151 -103.4013 359° North  Level Estimated
09:13AM 25.2068 -103.4032 359° North  Level Estimated
09:14AM 25.2985 -103.4051 359° North  Level Estimated
09:15AM 25.3902 -103.4069 359° North  Level Estimated
09:16AM 25.4820 -103.4088 359° North  Level Estimated
09:17AM 25.5683 -103.4106 359° North  Level Estimated
09:18AM 25.5683 -103.4106 234° Southwest  Level Estimated
09:19AM 25.5683 -103.4106 234° Southwest  Level Estimated
09:20AM 25.5683 -103.4106 234° Southwest  Level Estimated
09:21AM 25.5683 -103.4106 234° Southwest  Level Estimated
09:22AM 25.5683 -103.4106 234° Southwest  Level Estimated

Login

Don't have an account? Register now (free) for customized features, flight alerts, and more!